createdAt,value
2022-09-05T00:04:41.005Z,102112.28
2022-09-05T00:09:51.651Z,102112.38
2022-09-05T00:15:19.362Z,102114.41
2022-09-05T00:24:21.706Z,102091.53
2022-09-05T00:26:22.977Z,102098.97
2022-09-05T00:31:53.353Z,102107.13
2022-09-05T00:36:58.715Z,102113.53
2022-09-05T00:42:07.924Z,102107.47
2022-09-05T00:47:49.161Z,102134.81
2022-09-05T00:53:19.888Z,102135.56
2022-09-05T00:58:46.819Z,102127.44
2022-09-05T01:04:05.682Z,102123.63
2022-09-05T01:09:14.416Z,102112.94
2022-09-05T01:14:44.411Z,102119.66
2022-09-05T01:20:29.847Z,102114.03
2022-09-05T01:26:10.739Z,102086.47
2022-09-05T01:31:23.749Z,102094.13
2022-09-05T01:36:44.285Z,102105.78
2022-09-05T01:42:01.025Z,102104.13
2022-09-05T01:47:31.186Z,102103.94
2022-09-05T01:53:00.479Z,102120.13
2022-09-05T01:58:39.079Z,102140.06
2022-09-05T02:03:51.442Z,102131.50
2022-09-05T02:09:17.021Z,102139.41
2022-09-05T02:14:28.599Z,102151.41
2022-09-05T02:19:47.231Z,102178.19
2022-09-05T02:25:30.570Z,102178.66
2022-09-05T02:30:49.346Z,102182.94
2022-09-05T02:36:14.076Z,102184.69
2022-09-05T02:45:09.903Z,102170.81
2022-09-05T02:47:05.269Z,102154.22
2022-09-05T02:57:26.825Z,102149.13
2022-09-05T02:58:05.499Z,102143.63
2022-09-05T03:03:26.546Z,102146.56
2022-09-05T03:08:37.327Z,102145.94
2022-09-05T03:13:57.766Z,102131.63
2022-09-05T03:19:46.324Z,102138.44
2022-09-05T03:25:24.308Z,102140.09
2022-09-05T03:31:15.985Z,102136.59
2022-09-05T03:36:56.790Z,102152.88
2022-09-05T03:42:14.712Z,102161.50
2022-09-05T03:47:33.594Z,102169.28
2022-09-05T03:57:15.048Z,102173.75
2022-09-05T03:59:01.963Z,102185.25
2022-09-05T04:08:18.260Z,102185.66
2022-09-05T04:09:57.067Z,102196.75
2022-09-05T04:15:20.067Z,102189.59
2022-09-05T04:20:40.502Z,102171.91
2022-09-05T04:26:12.032Z,102184.94
2022-09-05T04:31:43.382Z,102190.41
2022-09-05T04:36:58.270Z,102189.09
2022-09-05T04:42:20.031Z,102198.44
2022-09-05T04:47:52.276Z,102194.31
2022-09-05T04:53:09.184Z,102204.41
2022-09-05T05:00:56.325Z,102212.41
2022-09-05T05:06:19.739Z,102222.50
2022-09-05T05:10:31.719Z,102223.13
2022-09-05T05:18:06.875Z,102221.13
2022-09-05T05:21:05.845Z,102213.63
2022-09-05T05:26:46.042Z,102214.03
2022-09-05T05:31:53.871Z,102218.03
2022-09-05T05:37:01.061Z,102209.72
2022-09-05T05:42:19.935Z,102207.72
2022-09-05T05:47:35.419Z,102222.53
2022-09-05T05:53:05.734Z,102238.72
2022-09-05T05:58:32.725Z,102223.22
2022-09-05T06:03:53.236Z,102225.25
2022-09-05T06:12:53.580Z,102228.31
2022-09-05T06:15:21.135Z,102221.25
2022-09-05T06:22:11.422Z,102184.53
2022-09-05T06:26:38.838Z,102105.69
2022-09-05T06:32:13.009Z,102066.78
2022-09-05T06:37:42.025Z,102046.03
2022-09-05T06:43:05.136Z,102026.69
2022-09-05T06:49:29.965Z,102008.47
2022-09-05T06:54:34.114Z,101993.44
2022-09-05T07:00:23.074Z,101977.91
2022-09-05T07:05:55.651Z,101963.03
2022-09-05T07:11:16.670Z,101960.38
2022-09-05T07:16:38.165Z,101962.00
2022-09-05T07:21:49.195Z,101956.44
2022-09-05T07:26:55.080Z,101968.81
2022-09-05T07:31:59.630Z,101966.66
2022-09-05T07:37:23.987Z,101962.44
2022-09-05T07:43:10.117Z,101953.72
2022-09-05T07:48:19.536Z,101941.97
2022-09-05T07:56:52.162Z,101947.16
2022-09-05T07:58:51.852Z,101935.56
2022-09-05T08:03:57.221Z,101927.41
2022-09-05T08:10:00.927Z,101928.47
2022-09-05T08:14:59.724Z,101917.84
2022-09-05T08:20:29.108Z,101919.41
2022-09-05T08:25:56.743Z,101917.00
2022-09-05T08:31:07.938Z,101915.09
2022-09-05T08:36:16.449Z,101919.56
2022-09-05T08:41:30.024Z,101915.94
2022-09-05T08:47:02.201Z,101914.91
2022-09-05T08:52:28.843Z,101916.72
2022-09-05T08:57:47.113Z,101917.59
2022-09-05T09:03:13.746Z,101917.53
2022-09-05T09:08:22.714Z,101906.59
2022-09-05T09:13:52.170Z,101907.25
2022-09-05T09:19:02.766Z,101913.78
2022-09-05T09:24:30.159Z,101900.84
2022-09-05T09:29:39.747Z,101903.88
2022-09-05T09:34:50.902Z,101901.16
2022-09-05T09:40:22.320Z,101902.53
2022-09-05T09:45:53.299Z,101894.56
2022-09-05T09:51:19.173Z,101893.34
2022-09-05T09:56:41.841Z,101878.44
2022-09-05T10:03:17.106Z,101893.47
2022-09-05T10:10:54.451Z,101873.53
2022-09-05T10:14:09.281Z,101876.97
2022-09-05T10:25:36.110Z,101859.59
2022-09-05T10:32:13.592Z,101873.28
2022-09-05T10:36:30.055Z,101864.72
2022-09-05T10:42:03.226Z,101851.56
2022-09-05T10:47:23.763Z,101856.00
2022-09-05T10:52:50.117Z,101854.47
2022-09-05T10:58:16.820Z,101855.44
2022-09-05T11:03:55.501Z,101845.47
2022-09-05T11:09:15.671Z,101839.72
2022-09-05T11:14:29.611Z,101837.25
2022-09-05T11:19:45.034Z,101838.63
2022-09-05T11:25:06.426Z,101827.28
2022-09-05T11:30:29.587Z,101835.44
2022-09-05T11:39:53.820Z,101830.72
2022-09-05T11:41:28.810Z,101830.22
2022-09-05T11:46:37.290Z,101820.59
2022-09-05T11:51:55.077Z,101813.66
2022-09-05T11:57:34.580Z,101814.69
2022-09-05T12:02:58.008Z,101815.03
2022-09-05T12:08:20.864Z,101809.94
2022-09-05T12:13:48.173Z,101807.28
2022-09-05T12:19:18.659Z,101808.66
2022-09-05T12:25:25.891Z,101804.78
2022-09-05T12:30:00.266Z,101800.19
2022-09-05T12:36:04.777Z,101791.88
2022-09-05T12:41:35.805Z,101808.38
2022-09-05T12:46:01.823Z,101798.44
2022-09-05T12:51:45.045Z,101799.25
2022-09-05T13:01:00.189Z,101785.44
2022-09-05T13:03:12.927Z,101787.34
2022-09-05T13:07:58.254Z,101787.22
2022-09-05T13:15:01.159Z,101781.25
2022-09-05T13:18:40.928Z,101770.53
2022-09-05T13:24:12.180Z,101769.94
2022-09-05T13:29:21.280Z,101764.91
2022-09-05T13:38:20.015Z,101774.00
2022-09-05T13:40:03.737Z,101764.97
2022-09-05T13:45:09.011Z,101760.16
2022-09-05T13:50:26.709Z,101761.03
2022-09-05T13:55:48.814Z,101736.75
2022-09-05T14:01:03.516Z,101734.53
2022-09-05T14:06:47.154Z,101733.44
2022-09-05T14:12:11.647Z,101735.00
2022-09-05T14:23:08.857Z,101724.28
2022-09-05T14:28:18.507Z,101724.34
2022-09-05T14:37:46.277Z,101721.66
2022-09-05T14:39:39.453Z,101713.41
2022-09-05T14:44:49.019Z,101719.16
2022-09-05T14:49:59.234Z,101709.41
2022-09-05T15:02:49.557Z,101701.50
2022-09-05T15:05:50.502Z,101701.28
2022-09-05T15:12:21.388Z,101695.72
2022-09-05T15:16:17.799Z,101684.22
2022-09-05T15:21:34.566Z,101684.66
2022-09-05T15:26:52.589Z,101687.66
2022-09-05T15:32:23.319Z,101681.25
2022-09-05T15:37:27.702Z,101678.47
2022-09-05T15:42:35.668Z,101671.19
2022-09-05T15:47:39.516Z,101675.59
2022-09-05T15:52:46.914Z,101669.88
2022-09-05T15:58:00.519Z,101668.94
2022-09-05T16:05:24.620Z,101661.38
2022-09-05T16:10:39.109Z,101664.34
2022-09-05T16:14:23.937Z,101650.28
2022-09-05T16:23:33.324Z,101655.59
2022-09-05T16:25:04.497Z,101646.94
2022-09-05T16:30:06.893Z,101647.00
2022-09-05T16:35:25.192Z,101648.09
2022-09-05T16:40:33.198Z,101636.75
2022-09-05T16:45:43.250Z,101634.97
2022-09-05T16:50:56.400Z,101622.31
2022-09-05T16:56:13.528Z,101626.19
2022-09-05T17:01:49.118Z,101619.59
2022-09-05T17:07:13.235Z,101607.53
2022-09-05T17:12:24.293Z,101602.56
2022-09-05T17:18:19.377Z,101595.03
2022-09-05T17:26:42.773Z,101588.47
2022-09-05T17:29:27.751Z,101591.03
2022-09-05T17:34:18.536Z,101588.16
2022-09-05T17:39:45.470Z,101592.59
2022-09-05T17:44:53.218Z,101582.47
2022-09-05T17:50:28.052Z,101593.66
2022-09-05T17:55:37.551Z,101602.41
2022-09-05T18:00:49.434Z,101599.09
2022-09-05T18:05:54.017Z,101590.03
2022-09-05T18:11:02.158Z,101596.19
2022-09-05T18:16:11.855Z,101595.50
2022-09-05T18:21:22.485Z,101594.81
2022-09-05T18:26:27.657Z,101599.47
2022-09-05T18:31:41.618Z,101590.78
2022-09-05T18:36:45.872Z,101602.34
2022-09-05T18:42:33.904Z,101599.84
2022-09-05T18:47:59.490Z,101613.47
2022-09-05T18:53:08.935Z,101632.25
2022-09-05T18:58:26.532Z,101638.41
2022-09-05T19:03:31.152Z,101634.13
2022-09-05T19:08:44.126Z,101641.16
2022-09-05T19:13:46.556Z,101635.09
2022-09-05T19:19:07.795Z,101648.16
2022-09-05T19:24:14.083Z,101658.63
2022-09-05T19:36:48.647Z,101640.31
2022-09-05T19:37:10.375Z,101652.50
2022-09-05T19:44:31.079Z,101656.63
2022-09-05T19:47:33.997Z,101655.91
2022-09-05T19:50:57.921Z,101642.91
2022-09-05T19:56:04.213Z,101648.88
2022-09-05T20:01:08.384Z,101651.28
2022-09-05T20:06:29.779Z,101659.03
2022-09-05T20:11:37.385Z,101650.28
2022-09-05T20:16:50.021Z,101651.09
2022-09-05T20:21:56.743Z,101666.53
2022-09-05T20:26:59.315Z,101657.81
2022-09-05T20:32:01.724Z,101648.88
2022-09-05T20:43:16.042Z,101667.94
2022-09-05T20:43:18.293Z,101680.03
2022-09-05T20:54:08.100Z,101678.34
2022-09-05T20:54:22.767Z,101678.50
2022-09-05T20:58:48.211Z,101656.16
2022-09-05T21:04:02.750Z,101663.88
2022-09-05T21:09:13.293Z,101657.56
2022-09-05T21:14:20.703Z,101668.63
2022-09-05T21:19:23.323Z,101662.06
2022-09-05T21:24:25.039Z,101648.25
2022-09-05T21:29:32.470Z,101640.69
2022-09-05T21:34:45.056Z,101662.66
2022-09-05T21:40:00.410Z,101654.84
2022-09-05T21:47:35.654Z,101651.34
2022-09-05T21:50:32.023Z,101657.50
2022-09-05T21:59:28.369Z,101647.09
2022-09-05T22:00:56.956Z,101648.63
2022-09-05T22:05:59.158Z,101648.56
2022-09-05T22:11:12.976Z,101669.22
2022-09-05T22:16:15.359Z,101670.94
2022-09-05T22:21:32.938Z,101649.03
2022-09-05T22:26:40.295Z,101620.03
2022-09-05T22:31:48.044Z,101588.03
2022-09-05T22:36:50.961Z,101589.78
2022-09-05T22:41:52.472Z,101587.19
2022-09-05T22:46:54.092Z,101591.44
2022-09-05T22:51:56.256Z,101598.34
2022-09-05T22:56:57.946Z,101597.50
2022-09-05T23:01:59.549Z,101583.69
2022-09-05T23:07:02.647Z,101595.03
2022-09-05T23:12:04.461Z,101606.34
2022-09-05T23:17:06.123Z,101601.06
2022-09-05T23:22:08.292Z,101622.81
2022-09-05T23:27:09.795Z,101630.69
2022-09-05T23:32:11.348Z,101623.72
2022-09-05T23:37:12.851Z,101635.06
2022-09-05T23:42:14.504Z,101622.00
2022-09-05T23:47:16.030Z,101613.25
2022-09-05T23:52:17.541Z,101607.19
2022-09-05T23:57:23.006Z,101601.13
